createdAt,value
2023-02-09T00:02:39.467Z,10.13
2023-02-09T00:07:41.066Z,11.10
2023-02-09T00:13:01.398Z,11.87
2023-02-09T00:18:02.960Z,10.23
2023-02-09T00:23:04.532Z,10.17
2023-02-09T00:28:06.555Z,12.30
2023-02-09T00:33:08.145Z,10.50
2023-02-09T00:38:11.249Z,10.37
2023-02-09T00:43:12.910Z,11.33
2023-02-09T00:48:14.501Z,10.67
2023-02-09T00:53:16.243Z,10.03
2023-02-09T00:58:18.427Z,12.57
2023-02-09T01:03:19.973Z,11.93
2023-02-09T01:08:21.562Z,12.00
2023-02-09T01:13:23.106Z,10.77
2023-02-09T01:18:24.662Z,12.20
2023-02-09T01:23:26.238Z,9.47
2023-02-09T01:28:27.850Z,11.43
2023-02-09T01:33:30.595Z,9.57
2023-02-09T01:38:32.209Z,10.13
2023-02-09T01:43:57.999Z,9.43
2023-02-09T01:49:05.039Z,10.37
2023-02-09T01:54:10.196Z,11.60
2023-02-09T01:59:11.986Z,10.10
2023-02-09T02:04:14.553Z,11.70
2023-02-09T02:09:17.252Z,10.77
2023-02-09T02:14:32.963Z,12.07
2023-02-09T02:19:49.772Z,12.60
2023-02-09T02:25:16.441Z,9.30
2023-02-09T02:30:41.965Z,10.90
2023-02-09T02:35:52.149Z,11.33
2023-02-09T02:41:20.368Z,11.80
2023-02-09T02:46:33.031Z,11.63
2023-02-09T02:51:43.617Z,10.63
2023-02-09T02:56:55.031Z,11.70
2023-02-09T03:02:01.012Z,15.13
2023-02-09T03:07:06.989Z,14.37
2023-02-09T03:12:17.672Z,15.50
2023-02-09T03:17:32.900Z,14.97
2023-02-09T03:22:39.990Z,15.60
2023-02-09T03:27:44.864Z,16.03
2023-02-09T03:32:46.925Z,15.93
2023-02-09T03:37:48.511Z,16.67
2023-02-09T03:42:50.160Z,16.50
2023-02-09T03:47:51.784Z,16.00
2023-02-09T03:52:53.356Z,14.77
2023-02-09T03:57:54.982Z,13.23
2023-02-09T04:02:56.564Z,17.30
2023-02-09T04:08:00.430Z,15.60
2023-02-09T04:13:02.092Z,13.87
2023-02-09T04:18:03.735Z,16.77
2023-02-09T04:23:05.313Z,15.77
2023-02-09T04:28:07.063Z,17.80
2023-02-09T04:33:08.634Z,17.13
2023-02-09T04:38:10.199Z,17.07
2023-02-09T04:43:11.877Z,15.97
2023-02-09T04:48:15.714Z,17.80
2023-02-09T04:53:17.943Z,19.83
2023-02-09T04:58:39.410Z,19.60
2023-02-09T05:03:42.497Z,20.03
2023-02-09T05:08:44.412Z,17.53
2023-02-09T05:13:46.251Z,18.23
2023-02-09T05:18:50.276Z,18.73
2023-02-09T05:23:51.919Z,18.33
2023-02-09T05:28:53.544Z,18.33
2023-02-09T05:33:55.106Z,15.60
2023-02-09T05:38:56.721Z,16.60
2023-02-09T05:43:58.439Z,16.83
2023-02-09T05:49:00.140Z,18.65
2023-02-09T05:54:01.779Z,16.30
2023-02-09T05:59:04.616Z,17.70
2023-02-09T06:04:06.983Z,20.37
2023-02-09T06:09:08.612Z,17.63
2023-02-09T06:14:10.613Z,17.43
2023-02-09T06:19:17.717Z,20.77
2023-02-09T06:24:19.284Z,21.03
2023-02-09T06:29:20.843Z,20.47
2023-02-09T06:34:22.465Z,23.23
2023-02-09T06:39:24.311Z,21.40
2023-02-09T06:44:25.883Z,21.67
2023-02-09T06:49:27.510Z,21.40
2023-02-09T06:54:29.316Z,18.67
2023-02-09T06:59:30.876Z,17.53
2023-02-09T07:04:32.408Z,17.37
2023-02-09T07:09:34.103Z,21.83
2023-02-09T07:14:35.692Z,17.93
2023-02-09T07:19:37.296Z,20.43
2023-02-09T07:24:38.871Z,17.60
2023-02-09T07:29:40.511Z,19.47
2023-02-09T07:34:42.096Z,18.90
2023-02-09T07:39:44.170Z,20.37
2023-02-09T07:44:45.819Z,20.73
2023-02-09T07:49:47.405Z,20.43
2023-02-09T07:54:50.617Z,19.37
2023-02-09T07:59:52.145Z,22.03
2023-02-09T08:04:56.000Z,24.87
2023-02-09T08:09:57.594Z,23.20
2023-02-09T08:14:59.402Z,23.87
2023-02-09T08:20:05.991Z,23.30
2023-02-09T08:25:08.350Z,24.50
2023-02-09T08:30:11.158Z,25.53
2023-02-09T08:35:12.827Z,23.97
2023-02-09T08:40:15.179Z,26.43
2023-02-09T08:45:16.888Z,23.90
2023-02-09T08:50:18.590Z,21.43
2023-02-09T08:55:20.148Z,21.03
2023-02-09T09:00:21.846Z,19.83
2023-02-09T09:05:23.403Z,19.93
2023-02-09T09:10:25.006Z,21.53
2023-02-09T09:15:26.544Z,18.07
2023-02-09T09:20:28.418Z,20.20
2023-02-09T09:25:30.036Z,21.10
2023-02-09T09:30:32.101Z,17.40
2023-02-09T09:35:33.674Z,17.63
2023-02-09T09:40:37.720Z,18.83
2023-02-09T09:45:39.664Z,16.33
2023-02-09T09:50:42.902Z,16.30
2023-02-09T09:55:45.314Z,16.57
2023-02-09T10:00:47.805Z,17.43
2023-02-09T10:05:55.498Z,14.63
2023-02-09T10:11:06.793Z,18.23
2023-02-09T10:16:17.303Z,16.60
2023-02-09T10:21:19.482Z,15.73
2023-02-09T10:26:24.132Z,15.13
2023-02-09T10:31:34.419Z,16.33
2023-02-09T10:36:38.286Z,15.53
2023-02-09T10:41:41.959Z,19.03
2023-02-09T10:46:43.580Z,14.13
2023-02-09T10:51:45.152Z,16.83
2023-02-09T10:56:48.608Z,13.40
2023-02-09T11:01:58.504Z,13.73
2023-02-09T11:07:02.879Z,18.90
2023-02-09T11:12:04.660Z,12.97
2023-02-09T11:17:24.243Z,13.37
2023-02-09T11:22:34.910Z,13.03
2023-02-09T11:28:04.325Z,13.37
2023-02-09T11:33:20.833Z,12.60
2023-02-09T11:38:37.038Z,11.03
2023-02-09T11:43:41.016Z,15.70
2023-02-09T11:48:48.817Z,13.67
2023-02-09T11:53:53.051Z,10.77
2023-02-09T11:58:57.369Z,11.10
2023-02-09T12:04:25.073Z,10.47
2023-02-09T12:09:39.047Z,11.50
2023-02-09T12:14:44.231Z,10.97
2023-02-09T12:19:54.939Z,11.00
2023-02-09T12:25:05.847Z,10.40
2023-02-09T12:30:41.418Z,12.77
2023-02-09T12:35:44.154Z,12.13
2023-02-09T12:41:04.386Z,13.83
2023-02-09T12:46:31.009Z,13.60
2023-02-09T12:51:47.789Z,15.40
2023-02-09T12:56:49.374Z,15.03
2023-02-09T13:02:06.226Z,15.43
2023-02-09T13:07:31.640Z,12.87
2023-02-09T13:12:38.005Z,13.80
2023-02-09T13:18:06.535Z,16.50
2023-02-09T13:23:29.308Z,15.10
2023-02-09T13:28:30.991Z,17.90
2023-02-09T13:33:44.489Z,14.67
2023-02-09T13:38:46.408Z,20.93
2023-02-09T13:43:48.231Z,18.37
2023-02-09T13:48:49.817Z,12.90
2023-02-09T13:53:59.945Z,13.83
2023-02-09T13:59:01.615Z,14.57
2023-02-09T14:04:19.945Z,14.90
2023-02-09T14:09:25.104Z,14.80
2023-02-09T14:14:49.408Z,13.00
2023-02-09T14:19:52.225Z,12.93
2023-02-09T14:24:53.888Z,15.70
2023-02-09T14:29:55.943Z,14.83
2023-02-09T14:34:57.576Z,18.10
2023-02-09T14:40:04.372Z,15.20
2023-02-09T14:45:14.744Z,15.07
2023-02-09T14:50:22.008Z,17.10
2023-02-09T14:55:28.541Z,17.47
2023-02-09T15:00:30.143Z,15.90
2023-02-09T15:05:31.713Z,14.63
2023-02-09T15:10:36.440Z,14.70
2023-02-09T15:15:39.684Z,16.33
2023-02-09T15:20:41.320Z,19.03
2023-02-09T15:25:43.674Z,17.63
2023-02-09T15:30:45.816Z,17.07
2023-02-09T15:35:48.349Z,17.03
2023-02-09T15:41:09.085Z,15.80
2023-02-09T15:46:10.842Z,21.70
2023-02-09T15:51:12.555Z,17.93
2023-02-09T15:56:14.943Z,16.13
2023-02-09T16:01:17.422Z,16.97
2023-02-09T16:06:26.968Z,13.97
2023-02-09T16:11:35.156Z,16.70
2023-02-09T16:16:37.382Z,20.80
2023-02-09T16:21:39.365Z,18.07
2023-02-09T16:26:41.123Z,20.57
2023-02-09T16:31:42.798Z,18.07
2023-02-09T16:36:45.301Z,20.23
2023-02-09T16:41:47.856Z,18.50
2023-02-09T16:46:52.570Z,19.10
2023-02-09T16:51:56.288Z,19.53
2023-02-09T16:56:57.891Z,20.40
2023-02-09T17:01:59.977Z,17.27
2023-02-09T17:07:01.608Z,19.17
2023-02-09T17:18:39.674Z,19.53
2023-02-09T17:23:42.682Z,22.40
2023-02-09T17:28:44.293Z,19.70
2023-02-09T17:33:47.720Z,19.63
2023-02-09T17:38:50.284Z,20.23
2023-02-09T17:43:52.851Z,19.40
2023-02-09T17:48:54.435Z,23.50
2023-02-09T17:53:55.995Z,20.10
2023-02-09T17:58:57.826Z,22.93
2023-02-09T18:04:02.715Z,22.10
2023-02-09T18:09:07.038Z,22.47
2023-02-09T18:14:12.489Z,22.50
2023-02-09T18:19:14.318Z,24.00
2023-02-09T18:24:16.754Z,21.83
2023-02-09T18:29:20.259Z,25.40
2023-02-09T18:34:22.075Z,23.83
2023-02-09T18:39:23.657Z,22.63
2023-02-09T18:44:29.182Z,20.70
2023-02-09T18:49:31.102Z,23.73
2023-02-09T18:54:33.562Z,19.00
2023-02-09T18:59:36.194Z,21.00
2023-02-09T19:04:37.801Z,24.10
2023-02-09T19:09:40.433Z,24.37
2023-02-09T19:14:45.439Z,20.87
2023-02-09T19:19:47.824Z,22.30
2023-02-09T19:24:51.284Z,21.93
2023-02-09T19:29:55.773Z,22.23
2023-02-09T19:34:57.403Z,19.40
2023-02-09T19:40:07.273Z,22.37
2023-02-09T19:45:09.305Z,19.40
2023-02-09T19:50:11.307Z,22.87
2023-02-09T19:55:13.684Z,19.80
2023-02-09T20:00:18.145Z,25.00
2023-02-09T20:05:19.719Z,21.43
2023-02-09T20:10:23.823Z,24.57
2023-02-09T20:15:25.545Z,21.27
2023-02-09T20:20:27.145Z,21.20
2023-02-09T20:25:29.427Z,22.43
2023-02-09T20:30:31.492Z,20.63
2023-02-09T20:35:33.075Z,21.07
2023-02-09T20:40:35.167Z,20.27
2023-02-09T20:45:55.449Z,20.43
2023-02-09T20:50:57.143Z,19.70
2023-02-09T20:55:59.186Z,18.50
2023-02-09T21:01:00.824Z,20.10
2023-02-09T21:06:02.450Z,19.40
2023-02-09T21:11:04.334Z,21.10
2023-02-09T21:16:05.956Z,20.30
2023-02-09T21:21:08.787Z,17.07
2023-02-09T21:26:13.981Z,19.70
2023-02-09T21:31:18.487Z,19.40
2023-02-09T21:36:20.139Z,19.23
2023-02-09T21:41:42.381Z,20.20
2023-02-09T21:46:44.061Z,20.77
2023-02-09T21:51:45.785Z,18.47
2023-02-09T21:56:47.358Z,20.60
2023-02-09T22:01:48.931Z,18.73
2023-02-09T22:06:50.551Z,20.70
2023-02-09T22:11:52.182Z,20.40
2023-02-09T22:16:53.745Z,22.17
2023-02-09T22:21:57.895Z,20.07
2023-02-09T22:26:59.508Z,21.83
2023-02-09T22:32:01.126Z,20.90
2023-02-09T22:37:02.739Z,23.97
2023-02-09T22:42:04.683Z,20.67
2023-02-09T22:47:06.252Z,20.50
2023-02-09T22:52:08.705Z,17.60
2023-02-09T22:57:10.335Z,18.17
2023-02-09T23:02:12.678Z,18.10
2023-02-09T23:07:14.387Z,20.07
2023-02-09T23:12:16.000Z,19.93
2023-02-09T23:17:17.570Z,21.97
2023-02-09T23:22:19.226Z,21.17
2023-02-09T23:27:20.763Z,21.63
2023-02-09T23:32:22.322Z,22.27
2023-02-09T23:37:37.355Z,25.27
2023-02-09T23:42:39.610Z,23.10
2023-02-09T23:47:41.244Z,23.80
2023-02-09T23:52:42.895Z,22.33
2023-02-09T23:57:44.482Z,24.80
